createdAt,value
2019-01-14T00:00:05.686Z,93663.80
2019-01-14T00:02:34.401Z,93656.59
2019-01-14T00:05:03.149Z,93648.45
2019-01-14T00:07:31.794Z,93643.34
2019-01-14T00:10:00.426Z,93650.43
2019-01-14T00:12:29.180Z,93642.06
2019-01-14T00:14:57.890Z,93645.06
2019-01-14T00:17:26.582Z,93641.16
2019-01-14T00:19:55.509Z,93647.51
2019-01-14T00:22:33.297Z,93647.11
2019-01-14T00:25:02.059Z,93650.70
2019-01-14T00:27:30.759Z,93641.72
2019-01-14T00:29:59.386Z,93645.58
2019-01-14T00:32:28.352Z,93651.25
2019-01-14T00:34:56.988Z,93639.23
2019-01-14T00:37:25.681Z,93641.66
2019-01-14T00:39:54.351Z,93635.78
2019-01-14T00:42:23.169Z,93643.98
2019-01-14T00:44:51.869Z,93637.17
2019-01-14T00:47:20.700Z,93650.09
2019-01-14T00:49:49.408Z,93649.98
2019-01-14T00:52:18.046Z,93648.22
2019-01-14T00:54:47.332Z,93641.75
2019-01-14T00:57:15.957Z,93643.97
2019-01-14T00:59:44.595Z,93639.11
2019-01-14T01:02:13.343Z,93640.69
2019-01-14T01:04:41.991Z,93639.55
2019-01-14T01:07:10.627Z,93632.38
2019-01-14T01:09:39.295Z,93636.68
2019-01-14T01:12:08.304Z,93625.41
2019-01-14T01:14:36.998Z,93621.72
2019-01-14T01:17:05.947Z,93617.91
2019-01-14T01:19:34.587Z,93624.03
2019-01-14T01:22:03.303Z,93619.62
2019-01-14T01:24:31.989Z,93611.77
2019-01-14T01:27:00.625Z,93606.70
2019-01-14T01:29:29.329Z,93601.33
2019-01-14T01:31:58.336Z,93602.48
2019-01-14T01:34:27.055Z,93606.12
2019-01-14T01:36:55.684Z,93594.77
2019-01-14T01:39:24.432Z,93586.67
2019-01-14T01:41:53.155Z,93587.25
2019-01-14T01:44:27.818Z,93586.02
2019-01-14T01:46:56.445Z,93586.02
2019-01-14T01:49:25.143Z,93575.90
2019-01-14T01:51:53.840Z,93585.80
2019-01-14T01:54:22.586Z,93586.54
2019-01-14T01:56:51.344Z,93581.89
2019-01-14T01:59:20.042Z,93578.16
2019-01-14T02:01:48.752Z,93579.27
2019-01-14T02:04:17.423Z,93569.86
2019-01-14T02:06:46.143Z,93554.94
2019-01-14T02:09:14.850Z,93545.06
2019-01-14T02:11:43.700Z,93548.92
2019-01-14T02:14:12.612Z,93543.98
2019-01-14T02:16:41.533Z,93540.98
2019-01-14T02:19:10.290Z,93539.13
2019-01-14T02:21:39.025Z,93542.83
2019-01-14T02:24:07.671Z,93535.73
2019-01-14T02:26:36.695Z,93535.21
2019-01-14T02:29:05.801Z,93533.27
2019-01-14T02:31:34.437Z,93522.78
2019-01-14T02:34:03.288Z,93517.03
2019-01-14T02:36:31.927Z,93493.95
2019-01-14T02:39:00.558Z,93491.78
2019-01-14T02:41:29.248Z,93489.38
2019-01-14T02:43:57.961Z,93476.50
2019-01-14T02:46:26.608Z,93479.39
2019-01-14T02:48:55.272Z,93472.58
2019-01-14T02:51:23.915Z,93460.34
2019-01-14T02:53:52.629Z,93467.86
2019-01-14T02:56:21.349Z,93467.22
2019-01-14T02:58:49.989Z,93464.36
2019-01-14T03:01:18.699Z,93471.63
2019-01-14T03:03:47.505Z,93479.09
2019-01-14T03:06:16.166Z,93488.38
2019-01-14T03:08:44.870Z,93481.90
2019-01-14T03:11:13.623Z,93470.63
2019-01-14T03:13:42.262Z,93483.28
2019-01-14T03:16:10.962Z,93485.84
2019-01-14T03:18:39.990Z,93476.58
2019-01-14T03:21:08.636Z,93455.78
2019-01-14T03:23:37.279Z,93452.87
2019-01-14T03:26:05.987Z,93456.55
2019-01-14T03:28:34.717Z,93459.80
2019-01-14T03:31:03.542Z,93458.52
2019-01-14T03:33:32.184Z,93455.16
2019-01-14T03:36:00.891Z,93449.19
2019-01-14T03:38:29.574Z,93436.57
2019-01-14T03:40:58.201Z,93448.05
2019-01-14T03:43:26.846Z,93444.39
2019-01-14T03:45:55.736Z,93448.41
2019-01-14T03:48:24.447Z,93476.19
2019-01-14T03:50:53.095Z,93460.88
2019-01-14T03:53:22.000Z,93479.28
2019-01-14T03:55:50.747Z,93472.25
2019-01-14T03:58:19.383Z,93476.20
2019-01-14T04:00:48.126Z,93474.98
2019-01-14T04:03:16.830Z,93476.78
2019-01-14T04:05:45.487Z,93475.44
2019-01-14T04:08:14.235Z,93480.92
2019-01-14T04:10:49.216Z,93488.01
2019-01-14T04:13:17.902Z,93467.95
2019-01-14T04:15:46.838Z,93456.70
2019-01-14T04:18:15.479Z,93439.98
2019-01-14T04:20:44.180Z,93446.55
2019-01-14T04:23:12.916Z,93436.20
2019-01-14T04:25:41.555Z,93435.66
2019-01-14T04:28:10.239Z,93436.13
2019-01-14T04:30:38.907Z,93440.50
2019-01-14T04:33:07.535Z,93431.10
2019-01-14T04:35:36.243Z,93427.65
2019-01-14T04:38:05.303Z,93427.62
2019-01-14T04:40:33.940Z,93425.41
2019-01-14T04:43:02.582Z,93413.31
2019-01-14T04:45:31.268Z,93414.48
2019-01-14T04:48:00.014Z,93430.44
2019-01-14T04:50:28.649Z,93419.28
2019-01-14T04:52:57.359Z,93433.19
2019-01-14T04:55:26.070Z,93434.23
2019-01-14T04:57:54.769Z,93432.37
2019-01-14T05:00:24.801Z,93427.02
2019-01-14T05:02:53.543Z,93424.98
2019-01-14T05:05:22.560Z,93418.36
2019-01-14T05:07:51.261Z,93412.00
2019-01-14T05:10:21.543Z,93405.36
2019-01-14T05:12:50.182Z,93408.32
2019-01-14T05:15:18.985Z,93405.38
2019-01-14T05:17:47.663Z,93404.95
2019-01-14T05:20:21.723Z,93410.22
2019-01-14T05:22:50.353Z,93428.03
2019-01-14T05:25:19.352Z,93426.50
2019-01-14T05:27:48.155Z,93427.26
2019-01-14T05:30:18.995Z,93422.84
2019-01-14T05:32:53.662Z,93430.77
2019-01-14T05:35:22.359Z,93435.12
2019-01-14T05:37:51.087Z,93422.09
2019-01-14T05:40:21.893Z,93437.34
2019-01-14T05:42:50.589Z,93442.89
2019-01-14T05:45:19.332Z,93449.59
2019-01-14T05:47:48.015Z,93448.06
2019-01-14T05:50:17.260Z,93447.61
2019-01-14T05:52:46.357Z,93438.34
2019-01-14T05:55:17.169Z,93439.50
2019-01-14T05:57:45.792Z,93448.64
2019-01-14T06:00:26.881Z,93436.63
2019-01-14T06:02:55.581Z,93439.06
2019-01-14T06:05:24.205Z,93432.32
2019-01-14T06:07:52.959Z,93431.46
2019-01-14T06:10:21.665Z,93426.86
2019-01-14T06:12:50.379Z,93438.61
2019-01-14T06:15:19.304Z,93436.18
2019-01-14T06:17:47.950Z,93447.53
2019-01-14T06:20:20.054Z,93442.22
2019-01-14T06:22:48.777Z,93448.17
2019-01-14T06:25:17.879Z,93423.84
2019-01-14T06:27:46.505Z,93432.67
2019-01-14T06:30:20.761Z,93412.86
2019-01-14T06:32:49.388Z,93404.17
2019-01-14T06:35:18.099Z,93404.17
2019-01-14T06:37:52.330Z,93389.41
2019-01-14T06:40:19.440Z,93387.14
2019-01-14T06:42:48.080Z,93401.10
2019-01-14T06:45:17.404Z,93401.10
2019-01-14T06:47:46.415Z,93409.14
2019-01-14T06:50:17.042Z,93423.69
2019-01-14T06:52:46.095Z,93423.69
2019-01-14T06:55:15.349Z,93416.85
2019-01-14T06:57:44.048Z,93425.13
2019-01-14T07:00:21.499Z,93435.27
2019-01-14T07:02:50.123Z,93435.27
2019-01-14T07:05:19.045Z,93437.87
2019-01-14T07:07:47.733Z,93437.02
2019-01-14T07:10:19.393Z,93444.50
2019-01-14T07:12:48.098Z,93437.69
2019-01-14T07:15:16.767Z,93432.51
2019-01-14T07:17:45.403Z,93432.51
2019-01-14T07:20:16.352Z,93431.72
2019-01-14T07:22:45.030Z,93421.09
2019-01-14T07:25:13.868Z,93429.09
2019-01-14T07:27:42.514Z,93421.83
2019-01-14T07:30:19.902Z,93411.03
2019-01-14T07:32:48.508Z,93412.83
2019-01-14T07:35:17.412Z,93416.06
2019-01-14T07:37:46.746Z,93424.19
2019-01-14T07:40:17.575Z,93425.54
2019-01-14T07:42:46.486Z,93426.95
2019-01-14T07:45:16.987Z,93414.98
2019-01-14T07:47:45.613Z,93430.63
2019-01-14T07:50:16.416Z,93419.22
2019-01-14T07:52:45.283Z,93423.83
2019-01-14T07:55:14.321Z,93425.28
2019-01-14T07:57:43.017Z,93424.95
2019-01-14T08:00:20.065Z,93423.81
2019-01-14T08:02:48.886Z,93430.05
2019-01-14T08:05:17.604Z,93433.62
2019-01-14T08:07:46.536Z,93441.30
2019-01-14T08:10:15.185Z,93439.41
2019-01-14T08:12:43.885Z,93435.47
2019-01-14T08:15:18.303Z,93430.76
2019-01-14T08:17:46.995Z,93438.80
2019-01-14T08:20:16.023Z,93431.05
2019-01-14T08:22:44.889Z,93446.65
2019-01-14T08:25:14.805Z,93437.77
2019-01-14T08:27:43.700Z,93442.59
2019-01-14T08:30:18.110Z,93431.02
2019-01-14T08:32:46.730Z,93434.55
2019-01-14T08:35:15.479Z,93434.59
2019-01-14T08:37:44.263Z,93433.74
2019-01-14T08:40:15.384Z,93436.86
2019-01-14T08:42:44.089Z,93431.56
2019-01-14T08:45:13.764Z,93431.59
2019-01-14T08:47:42.381Z,93434.74
2019-01-14T08:50:13.877Z,93437.52
2019-01-14T08:52:42.611Z,93446.77
2019-01-14T08:55:11.266Z,93443.35
2019-01-14T08:57:40.189Z,93448.69
2019-01-14T09:00:11.847Z,93440.84
2019-01-14T09:02:40.500Z,93446.28
2019-01-14T09:05:10.227Z,93447.11
2019-01-14T09:07:38.938Z,93444.04
2019-01-14T09:10:13.563Z,93452.58
2019-01-14T09:12:42.203Z,93442.23
2019-01-14T09:15:13.891Z,93439.01
2019-01-14T09:17:42.744Z,93435.20
2019-01-14T09:20:16.589Z,93419.51
2019-01-14T09:22:45.455Z,93419.92
2019-01-14T09:25:14.305Z,93423.55
2019-01-14T09:27:43.033Z,93415.89
2019-01-14T09:30:17.372Z,93419.52
2019-01-14T09:32:46.130Z,93412.69
2019-01-14T09:35:14.837Z,93418.82
2019-01-14T09:37:43.747Z,93413.23
2019-01-14T09:40:20.339Z,93417.16
2019-01-14T09:42:48.988Z,93414.90
2019-01-14T09:45:17.800Z,93406.70
2019-01-14T09:47:46.534Z,93411.66
2019-01-14T09:50:16.109Z,93396.58
2019-01-14T09:52:44.831Z,93404.58
2019-01-14T09:55:18.280Z,93396.02
2019-01-14T09:57:47.384Z,93393.93
2019-01-14T10:00:16.081Z,93392.15
2019-01-14T10:02:44.885Z,93381.93
2019-01-14T10:05:18.127Z,93386.47
2019-01-14T10:07:46.954Z,93385.84
2019-01-14T10:10:17.409Z,93383.19
2019-01-14T10:12:46.150Z,93382.44
2019-01-14T10:15:20.098Z,93376.59
2019-01-14T10:17:50.462Z,93371.15
2019-01-14T10:20:19.168Z,93373.57
2019-01-14T10:22:47.904Z,93367.61
2019-01-14T10:25:16.603Z,93364.41
2019-01-14T10:27:45.348Z,93367.45
2019-01-14T10:30:18.923Z,93357.84
2019-01-14T10:32:47.626Z,93364.31
2019-01-14T10:35:16.365Z,93355.97
2019-01-14T10:37:45.038Z,93356.39
2019-01-14T10:40:15.770Z,93360.78
2019-01-14T10:42:44.543Z,93359.71
2019-01-14T10:45:21.573Z,93356.31
2019-01-14T10:47:50.277Z,93357.44
2019-01-14T10:50:19.297Z,93348.96
2019-01-14T10:52:48.138Z,93353.38
2019-01-14T10:55:16.768Z,93351.17
2019-01-14T10:57:45.708Z,93347.55
2019-01-14T11:00:17.639Z,93341.84
2019-01-14T11:02:47.981Z,93344.41
2019-01-14T11:05:21.912Z,93347.75
2019-01-14T11:07:50.746Z,93341.42
2019-01-14T11:10:19.491Z,93339.64
2019-01-14T11:12:48.242Z,93336.87
2019-01-14T11:15:21.945Z,93339.89
2019-01-14T11:17:51.057Z,93343.14
2019-01-14T11:20:25.104Z,93339.52
2019-01-14T11:22:53.735Z,93332.48
2019-01-14T11:25:22.419Z,93328.45
2019-01-14T11:27:51.078Z,93331.41
2019-01-14T11:30:24.766Z,93329.95
2019-01-14T11:32:53.404Z,93329.58
2019-01-14T11:35:22.124Z,93333.03
2019-01-14T11:37:50.821Z,93340.14
2019-01-14T11:40:31.421Z,93334.81
2019-01-14T11:43:00.252Z,93336.66
2019-01-14T11:45:28.950Z,93341.42
2019-01-14T11:47:57.713Z,93329.88
2019-01-14T11:50:26.397Z,93335.13
2019-01-14T11:52:55.089Z,93333.16
2019-01-14T11:55:23.760Z,93336.33
2019-01-14T11:57:52.387Z,93331.79
2019-01-14T12:00:25.943Z,93333.43
2019-01-14T12:02:55.132Z,93332.13
2019-01-14T12:05:23.777Z,93325.02
2019-01-14T12:07:52.437Z,93331.20
2019-01-14T12:10:21.410Z,93329.11
2019-01-14T12:12:50.120Z,93331.36
2019-01-14T12:15:24.641Z,93342.05
2019-01-14T12:17:53.387Z,93333.45
2019-01-14T12:20:22.176Z,93338.13
2019-01-14T12:22:50.810Z,93339.92
2019-01-14T12:25:20.180Z,93336.78
2019-01-14T12:27:48.826Z,93344.28
2019-01-14T12:30:23.654Z,93341.30
2019-01-14T12:32:52.342Z,93338.42
2019-01-14T12:35:21.035Z,93337.83
2019-01-14T12:37:49.664Z,93339.43
2019-01-14T12:40:18.641Z,93336.91
2019-01-14T12:42:47.346Z,93331.05
2019-01-14T12:45:18.239Z,93341.75
2019-01-14T12:47:46.961Z,93337.82
2019-01-14T12:50:17.464Z,93328.36
2019-01-14T12:52:46.097Z,93333.91
2019-01-14T12:55:16.772Z,93336.02
2019-01-14T12:57:45.583Z,93331.81
2019-01-14T13:00:28.222Z,93332.55
2019-01-14T13:02:58.506Z,93336.77
2019-01-14T13:05:28.899Z,93325.66
2019-01-14T13:07:57.565Z,93334.35
2019-01-14T13:10:26.283Z,93332.40
2019-01-14T13:12:54.988Z,93338.43
2019-01-14T13:15:25.755Z,93334.53
2019-01-14T13:17:54.688Z,93336.48
2019-01-14T13:20:23.881Z,93331.50
2019-01-14T13:22:53.180Z,93328.95
2019-01-14T13:25:21.898Z,93337.83
2019-01-14T13:27:50.733Z,93344.86
2019-01-14T13:30:24.492Z,93337.95
2019-01-14T13:32:53.583Z,93339.44
2019-01-14T13:35:22.235Z,93335.09
2019-01-14T13:37:51.447Z,93333.77
2019-01-14T13:40:20.138Z,93327.73
2019-01-14T13:42:48.776Z,93328.80
2019-01-14T13:45:19.463Z,93332.25
2019-01-14T13:47:48.101Z,93338.28
2019-01-14T13:50:19.300Z,93336.30
2019-01-14T13:52:47.999Z,93342.33
2019-01-14T13:55:17.421Z,93346.54
2019-01-14T13:57:46.220Z,93342.78
2019-01-14T14:00:21.032Z,93341.28
2019-01-14T14:02:49.967Z,93324.27
2019-01-14T14:05:18.666Z,93328.17
2019-01-14T14:07:47.565Z,93335.12
2019-01-14T14:10:18.993Z,93337.09
2019-01-14T14:12:47.823Z,93337.23
2019-01-14T14:15:17.859Z,93336.94
2019-01-14T14:17:46.571Z,93335.88
2019-01-14T14:20:19.227Z,93337.08
2019-01-14T14:22:48.367Z,93352.41
2019-01-14T14:25:17.183Z,93342.73
2019-01-14T14:27:45.799Z,93351.62
2019-01-14T14:30:26.363Z,93364.39
2019-01-14T14:32:54.992Z,93362.83
2019-01-14T14:35:23.691Z,93361.02
2019-01-14T14:37:52.403Z,93374.09
2019-01-14T14:40:21.045Z,93380.79
2019-01-14T14:42:49.728Z,93384.23
2019-01-14T14:45:18.594Z,93384.84
2019-01-14T14:47:47.217Z,93387.28
2019-01-14T14:50:17.736Z,93389.50
2019-01-14T14:52:47.460Z,93388.13
2019-01-14T14:55:16.098Z,93389.52
2019-01-14T14:57:44.719Z,93400.81
2019-01-14T15:00:22.042Z,93406.20
2019-01-14T15:02:57.874Z,93397.98
2019-01-14T15:05:26.597Z,93404.98
2019-01-14T15:07:55.256Z,93402.86
2019-01-14T15:10:23.889Z,93388.85
2019-01-14T15:12:52.525Z,93394.26
2019-01-14T15:15:23.274Z,93395.77
2019-01-14T15:17:52.023Z,93418.67
2019-01-14T15:20:22.545Z,93416.53
2019-01-14T15:22:51.287Z,93421.75
2019-01-14T15:25:19.991Z,93412.80
2019-01-14T15:27:48.682Z,93417.89
2019-01-14T15:30:25.831Z,93416.73
2019-01-14T15:32:54.563Z,93407.20
2019-01-14T15:35:23.468Z,93417.70
2019-01-14T15:37:52.158Z,93416.80
2019-01-14T15:40:28.220Z,93415.29
2019-01-14T15:42:56.890Z,93422.31
2019-01-14T15:45:25.793Z,93423.08
2019-01-14T15:47:54.435Z,93430.43
2019-01-14T15:50:23.148Z,93434.48
2019-01-14T15:52:51.786Z,93433.00
2019-01-14T15:55:23.078Z,93439.63
2019-01-14T15:57:51.762Z,93441.14
2019-01-14T16:00:20.594Z,93442.95
2019-01-14T16:02:49.638Z,93435.84
2019-01-14T16:05:19.575Z,93444.90
2019-01-14T16:07:48.393Z,93444.41
2019-01-14T16:10:22.049Z,93446.55
2019-01-14T16:12:50.979Z,93436.46
2019-01-14T16:15:19.709Z,93437.44
2019-01-14T16:18:03.487Z,93453.05
2019-01-14T16:20:32.126Z,93453.67
2019-01-14T16:23:00.829Z,93469.59
2019-01-14T16:25:29.577Z,93473.81
2019-01-14T16:27:58.279Z,93481.44
2019-01-14T16:30:27.078Z,93478.86
2019-01-14T16:32:55.823Z,93478.16
2019-01-14T16:35:24.554Z,93479.22
2019-01-14T16:37:53.247Z,93488.22
2019-01-14T16:40:22.163Z,93487.76
2019-01-14T16:42:50.830Z,93485.18
2019-01-14T16:45:22.363Z,93491.44
2019-01-14T16:47:51.042Z,93493.94
2019-01-14T16:50:19.779Z,93491.95
2019-01-14T16:52:48.413Z,93494.06
2019-01-14T16:55:18.833Z,93494.39
2019-01-14T16:57:47.454Z,93484.67
2019-01-14T17:00:18.387Z,93489.12
2019-01-14T17:02:47.056Z,93487.04
2019-01-14T17:05:16.604Z,93496.20
2019-01-14T17:07:45.309Z,93486.70
2019-01-14T17:10:17.009Z,93488.69
2019-01-14T17:12:45.767Z,93499.87
2019-01-14T17:15:14.799Z,93497.63
2019-01-14T17:17:43.503Z,93486.47
2019-01-14T17:20:17.593Z,93489.28
2019-01-14T17:22:46.613Z,93488.78
2019-01-14T17:25:15.753Z,93493.72
2019-01-14T17:27:45.300Z,93505.95
2019-01-14T17:30:17.076Z,93512.31
2019-01-14T17:32:46.895Z,93508.48
2019-01-14T17:35:16.201Z,93498.89
2019-01-14T17:37:44.927Z,93505.64
2019-01-14T17:40:15.900Z,93512.65
2019-01-14T17:42:44.557Z,93521.45
2019-01-14T17:45:13.455Z,93514.81
2019-01-14T17:47:42.193Z,93519.73
2019-01-14T17:50:16.129Z,93520.36
2019-01-14T17:52:44.756Z,93526.95
2019-01-14T17:55:13.912Z,93527.78
2019-01-14T17:57:42.811Z,93529.97
2019-01-14T18:00:17.058Z,93537.95
2019-01-14T18:02:45.855Z,93544.84
2019-01-14T18:05:14.651Z,93543.66
2019-01-14T18:07:43.352Z,93539.42
2019-01-14T18:10:18.832Z,93540.95
2019-01-14T18:12:47.751Z,93542.35
2019-01-14T18:15:16.376Z,93530.86
2019-01-14T18:17:45.449Z,93531.13
2019-01-14T18:20:16.439Z,93534.59
2019-01-14T18:22:45.181Z,93543.08
2019-01-14T18:25:15.138Z,93536.11
2019-01-14T18:27:49.816Z,93541.98
2019-01-14T18:30:20.250Z,93536.58
2019-01-14T18:32:48.950Z,93538.98
2019-01-14T18:35:17.782Z,93540.72
2019-01-14T18:37:46.506Z,93548.70
2019-01-14T18:40:16.643Z,93553.69
2019-01-14T18:42:45.346Z,93560.75
2019-01-14T18:45:18.236Z,93560.11
2019-01-14T18:47:46.956Z,93555.21
2019-01-14T18:50:20.450Z,93562.97
2019-01-14T18:52:49.350Z,93565.84
2019-01-14T18:55:18.053Z,93568.56
2019-01-14T18:57:46.684Z,93566.69
2019-01-14T19:00:18.194Z,93569.46
2019-01-14T19:02:46.821Z,93575.48
2019-01-14T19:05:15.534Z,93581.31
2019-01-14T19:07:44.162Z,93587.70
2019-01-14T19:10:13.849Z,93592.05
2019-01-14T19:12:42.586Z,93591.70
2019-01-14T19:15:16.403Z,93589.64
2019-01-14T19:17:45.093Z,93591.91
2019-01-14T19:20:16.551Z,93601.64
2019-01-14T19:22:45.184Z,93600.00
2019-01-14T19:25:14.521Z,93604.48
2019-01-14T19:27:43.226Z,93605.05
2019-01-14T19:30:14.856Z,93604.53
2019-01-14T19:32:43.547Z,93614.97
2019-01-14T19:35:12.212Z,93616.64
2019-01-14T19:37:47.081Z,93604.47
2019-01-14T19:40:18.655Z,93604.73
2019-01-14T19:42:47.393Z,93598.59
2019-01-14T19:45:18.323Z,93601.86
2019-01-14T19:47:47.072Z,93605.59
2019-01-14T19:50:18.090Z,93601.80
2019-01-14T19:52:46.991Z,93616.52
2019-01-14T19:55:15.915Z,93616.77
2019-01-14T19:57:44.736Z,93617.66
2019-01-14T20:00:22.667Z,93627.47
2019-01-14T20:02:51.315Z,93629.67
2019-01-14T20:05:20.011Z,93627.00
2019-01-14T20:07:50.498Z,93627.34
2019-01-14T20:10:19.182Z,93630.34
2019-01-14T20:12:47.910Z,93636.81
2019-01-14T20:15:18.736Z,93640.86
2019-01-14T20:17:47.352Z,93636.67
2019-01-14T20:20:16.571Z,93640.96
2019-01-14T20:22:45.303Z,93641.12
2019-01-14T20:25:14.218Z,93641.47
2019-01-14T20:27:42.892Z,93631.95
2019-01-14T20:30:21.798Z,93649.97
2019-01-14T20:32:50.411Z,93641.33
2019-01-14T20:35:19.435Z,93642.30
2019-01-14T20:37:48.160Z,93651.56
2019-01-14T20:40:17.261Z,93641.34
2019-01-14T20:42:45.979Z,93645.99
2019-01-14T20:45:16.346Z,93653.80
2019-01-14T20:47:45.047Z,93648.56
2019-01-14T20:50:18.322Z,93648.70
2019-01-14T20:52:46.985Z,93654.61
2019-01-14T20:55:15.707Z,93661.32
2019-01-14T20:57:44.399Z,93658.02
2019-01-14T21:00:16.912Z,93657.75
2019-01-14T21:02:45.661Z,93668.05
2019-01-14T21:05:21.613Z,93673.98
2019-01-14T21:07:50.362Z,93670.52
2019-01-14T21:10:19.266Z,93671.22
2019-01-14T21:12:47.971Z,93672.75
2019-01-14T21:15:16.717Z,93676.41
2019-01-14T21:17:45.404Z,93664.25
2019-01-14T21:20:16.898Z,93682.55
2019-01-14T21:22:45.701Z,93677.34
2019-01-14T21:25:14.448Z,93683.25
2019-01-14T21:27:43.149Z,93687.73
2019-01-14T21:30:14.782Z,93689.41
2019-01-14T21:32:43.478Z,93688.45
2019-01-14T21:35:12.175Z,93684.88
2019-01-14T21:37:46.571Z,93699.19
2019-01-14T21:40:15.305Z,93703.66
2019-01-14T21:42:43.997Z,93694.17
2019-01-14T21:45:14.267Z,93704.80
2019-01-14T21:47:42.965Z,93702.63
2019-01-14T21:50:14.558Z,93706.02
2019-01-14T21:52:43.487Z,93699.89
2019-01-14T21:55:17.915Z,93705.80
2019-01-14T21:57:46.607Z,93703.73
2019-01-14T22:00:19.975Z,93694.31
2019-01-14T22:02:48.878Z,93703.11
2019-01-14T22:05:17.681Z,93708.13
2019-01-14T22:07:46.493Z,93717.28
2019-01-14T22:10:17.731Z,93711.20
2019-01-14T22:12:46.415Z,93721.61
2019-01-14T22:15:15.974Z,93718.73
2019-01-14T22:17:44.687Z,93724.12
2019-01-14T22:20:16.276Z,93727.20
2019-01-14T22:22:45.206Z,93722.22
2019-01-14T22:25:13.905Z,93725.28
2019-01-14T22:27:42.509Z,93717.95
2019-01-14T22:30:17.328Z,93723.94
2019-01-14T22:32:46.134Z,93727.13
2019-01-14T22:35:14.812Z,93728.13
2019-01-14T22:37:43.642Z,93736.08
2019-01-14T22:40:14.234Z,93740.27
2019-01-14T22:42:42.851Z,93736.27
2019-01-14T22:45:12.308Z,93725.98
2019-01-14T22:47:41.054Z,93723.95
2019-01-14T22:50:18.266Z,93752.28
2019-01-14T22:52:47.017Z,93736.34
2019-01-14T22:55:15.956Z,93729.17
2019-01-14T22:57:44.685Z,93729.86
2019-01-14T23:00:43.354Z,93723.12
2019-01-14T23:03:12.303Z,93727.08
2019-01-14T23:05:40.935Z,93728.34
2019-01-14T23:08:09.623Z,93726.42
2019-01-14T23:13:25.986Z,93725.91
2019-01-14T23:15:54.706Z,93737.02
2019-01-14T23:18:23.334Z,93734.66
2019-01-14T23:20:51.959Z,93742.34
2019-01-14T23:23:20.696Z,93749.00
2019-01-14T23:25:49.379Z,93741.16
2019-01-14T23:28:18.000Z,93761.22
2019-01-14T23:30:46.655Z,93757.09
2019-01-14T23:33:15.358Z,93745.96
2019-01-14T23:35:43.980Z,93753.23
2019-01-14T23:38:12.849Z,93756.27
2019-01-14T23:40:41.472Z,93763.59
2019-01-14T23:43:10.106Z,93765.13
2019-01-14T23:45:38.817Z,93759.59
2019-01-14T23:48:07.443Z,93764.39
2019-01-14T23:50:36.073Z,93765.48
2019-01-14T23:53:04.863Z,93771.89
2019-01-14T23:55:33.522Z,93776.34
2019-01-14T23:58:02.177Z,93769.34
